Terminal Aerodrome Forecast
Issued by NWS

Home | Current Version | Previous Version | Text Only | Print | Product List | Glossary On
Versions: 1 2 3 4 5 6 7 8 9 10 11 12 13
000
FTUS45 KFGZ 181700
TAFSEZ
TAF
KSEZ 181739Z 1818/1918 14007KT P6SM FEW050
     FM182100 VRB06KT P6SM VCSH SCT050 SCT100
     FM190200 VRB05KT P6SM SCT100
     FM190400 05009KT P6SM FEW100
     FM191400 VRB05KT P6SM SKC=

USA.gov is the U.S. government's official web portal to all federal, state and local government web resources and services.